Außentemperatur Tagesdurchschnitt Außenfeuchte Tagesdurchschnitt Taupunkt Tagesdurchschnitt Windchill Tagesdurchschnitt Windgeschwindigkeit Tagesdurchschnitt Gesamtregen Mindesttemperatur Höchsttemperatur Höchste Windgeschwindigkeit  Tägliche Niederschlagsmenge 
                         
                         
max min mittel °C % °C °C km/h mm/m² °C °C km/h mm/m²
1.1.11 1021,0 1015,1 1017,0 -2,9 82,8 -5,4 -4,1 5,0 0,0 -5,3 -0,9 27,3 0,0
2.1.11 1018,9 1015,6 1017,1 -2,8 77,2 -6,3 -3,1 2,5 0,0 -4,3 -0,7 16,5 0,0
3.1.11 1020,3 1018,7 1019,6 -4,0 78,4 -7,2 -4,1 1,7 0,4 -7,3 0,4 20,5 0,4
4.1.11 1019,9 1016,1 1018,0 -6,0 72,7 -10,1 -6,1 1,0 0,4 -7,7 -3,4 19,0 0,0
5.1.11 1016,0 1010,0 1013,5 -7,7 66,2 -12,9 -8,7 3,0 0,4 -8,9 -6,6 30,9 0,0
6.1.11 1010,2 1003,3 1005,4 -2,7 76,0 -6,4 -4,3 5,5 4,8 -9,3 3,1 38,1 4,4
7.1.11 1012,2 1004,8 1009,7 5,1 89,4 3,4 4,4 2,9 12,3 2,6 6,7 33,4 7,5
8.1.11 1012,2 1010,3 1011,4 5,7 85,9 3,4 5,1 2,6 15,8 2,7 10,5 28,4 3,5
9.1.11 1016,7 1009,7 1011,9 5,5 75,5 1,2 5,3 1,6 19,9 1,2 12,2 31,6 4,1
10.1.11 1022,2 1016,7 1019,9 -0,3 82,3 -2,9 -0,3 0,1 19,9 -2,2 2,7 5,0 0,0
11.1.11 1017,6 1008,6 1012,2 0,4 83,2 -2,1 0,2 1,3 19,9 -0,3 1,4 26,6 0,0
12.1.11 1017,5 1011,0 1014,7 1,9 83,8 -0,5 0,9 4,4 21,8 0,4 3,8 31,6 1,9
13.1.11 1013,1 1010,4 1011,6 5,5 94,3 4,6 5,0 2,7 42,5 2,4 8,4 24,4 20,7
14.1.11 1015,7 1013,0 1014,5 8,1 91,5 6,8 7,3 4,4 43,6 6,7 9,1 27,0 1,1
15.1.11 1025,7 1014,0 1020,8 5,9 82,0 3,0 4,4 6,3 46,0 4,7 7,7 31,3 2,4
16.1.11 1026,3 1024,7 1025,7 4,4 76,6 0,4 4,1 1,8 46,0 -2,4 10,8 27,7 0,0
17.1.11 1025,7 1023,0 1024,2 0,4 87,8 -1,5 0,3 0,9 46,2 -2,8 5,5 15,4 0,2
18.1.11 1024,2 1021,6 1023,0 4,5 87,0 2,5 4,4 1,7 48,1 2,8 7,4 23,0 1,9
19.1.11 1024,4 1021,3 1023,3 0,9 87,5 -0,9 0,5 2,8 51,1 -1,4 3,9 19,4 3,0
20.1.11 1027,2 1022,1 1023,8 -1,2 82,5 -3,8 -1,7 2,9 56,0 -3,4 4,4 19,7 4,9
21.1.11 1029,9 1027,3 1028,8 -3,9 74,0 -7,8 -4,0 2,8 56,0 -4,6 -2,8 15,8 0,0
22.1.11 1029,2 1025,7 1027,6 -4,6 65,8 -10,2 -4,6 0,4 56,0 -10,9 3,4 9,3 0,0
23.1.11 1025,7 1020,7 1022,5 -5,5 71,3 -9,8 -5,5 1,5 56,0 -12,3 -0,3 12,2 0,0
24.1.11 1020,8 1017,2 1019,2 -0,7 85,1 -2,8 -0,7 1,3 56,1 -3,3 1,5 14,0 0,1
25.1.11 1017,1 1004,7 1009,8 -0,8 87,0 -2,6 -1,7 4,2 58,8 -1,5 0,1 28,0 2,7
26.1.11 1011,7 1004,7 1007,2 -1,7 81,1 -4,5 -1,9 2,0 60,8 -7,8 0,4 19,0 2,0
27.1.11 1019,7 1011,7 1015,7 -5,5 75,2 -9,2 -6,2 3,4 60,8 -9,9 -2,8 23,0 0,0
28.1.11 1021,7 1019,7 1020,8 -4,3 65,9 -9,8 -5,2 4,7 60,8 -6,1 -0,6 28,4 0,0
29.1.11 1020,8 1016,9 1018,6 -6,6 57,1 -13,9 -6,7 1,4 60,8 -12,3 -0,8 19,8 0,0
30.1.11 1020,1 1016,4 1017,9 -8,9 58,8 -15,7 -9,0 1,1 60,8 -14,4 1,9 18,0 0,0
31.1.11 1023,6 1019,8 1021,2 -10,1 54,0 -17,8 -10,1 0,4 60,8 -16,9 0,9 14,7 0,0
1.2.11 1024,3 1022,9 1023,5 -10,1 62,7 -15,9 -10,4 2,2 60,8 -14,5 -2,0 26,6 0,0
2.2.11 1028,3 1024,2 1026,9 -6,3 73,8 -10,1 -7,4 4,7 60,8 -8,9 -4,1 33,8 0,0
3.2.11 1027,1 1024,2 1025,3 -3,1 77,9 -6,4 -4,1 4,5 62,4 -4,9 -0,7 29,1 1,6
4.2.11 1026,6 1019,9 1022,8 0,8 82,1 -1,9 -1,8 8,9 63,9 -1,8 3,7 44,2 1,5
5.2.11 1023,3 1019,3 1021,3 5,2 68,8 -0,1 0,9 13,4 63,9 3,7 6,5 44,6 0,0
6.2.11 1024,5 1022,6 1023,3 6,2 65,8 0,2 3,7 9,3 63,9 3,5 10,3 33,1 0,0
7.2.11 1023,4 1017,2 1021,2 4,7 48,8 -7,0 3,9 4,2 63,9 -0,6 11,2 32,4 0,0
8.2.11 1023,7 1017,1 1020,1 3,2 51,6 -6,0 2,4 3,3 64,1 -3,5 10,1 15,1 0,2
9.2.11 1023,7 1022,4 1023,1 -0,3 54,4 -10,0 -0,3 0,2 64,1 -6,9 11,0 6,4 0,0
10.2.11 1022,7 1015,0 1019,5 0,7 62,0 -5,9 0,3 2,2 64,1 -5,9 8,0 21,9 0,0
11.2.11 1015,0 1010,6 1011,8 6,0 83,5 3,4 4,4 7,1 66,4 3,5 7,8 33,1 2,3
12.2.11 1019,0 1011,5 1016,8 -1,0 68,4 -6,1 -1,7 2,9 66,9 -3,0 6,5 24,1 0,5
13.2.11 1016,7 1011,4 1013,1 -1,6 78,0 -4,9 -1,8 1,2 72,6 -2,8 -0,2 18,3 5,7
14.2.11 1011,5 1008,7 1010,5 -0,9 81,4 -3,7 -1,4 3,2 72,8 -1,8 0,8 25,9 0,2
15.2.11 1008,7 1001,7 1004,9 -1,8 75,5 -5,4 -2,6 3,8 72,8 -2,6 -1,0 32,4 0,0
16.2.11 1004,1 1001,7 1003,1 -2,3 63,3 -8,4 -3,2 3,7 72,8 -4,2 2,7 28,0 0,0
17.2.11 1007,9 1000,9 1003,3 -1,6 75,5 -5,3 -1,7 2,0 72,8 -3,5 0,7 18,7 0,0
18.2.11 1015,0 1008,0 1011,9 -2,8 81,6 -5,4 -2,8 1,2 72,8 -3,6 -1,6 11,8 0,0
19.2.11 1017,5 1014,5 1016,3 -2,8 92,4 -3,8 -2,8 1,0 72,8 -3,6 -1,6 6,4 0,0
20.2.11 1017,5 1015,7 1016,6 -5,7 69,6 -10,5 -6,3 3,2 72,8 -9,0 -3,2 18,3 0,0
21.2.11 1018,2 1015,5 1017,0 -8,8 51,2 -17,6 -9,1 2,4 72,8 -13,2 -2,2 15,4 0,0
22.2.11 1020,8 1014,7 1016,7 -11,6 50,9 -20,3 -12,1 2,2 72,8 -16,6 -2,9 22,6 0,0
23.2.11 1025,0 1020,7 1023,5 -10,6 40,2 -22,9 -10,7 0,8 72,8 -19,0 1,0 10,8 0,0
24.2.11 1027,2 1024,0 1025,2 -5,6 34,8 -20,2 -5,8 1,5 72,8 -14,3 2,5 19,8 0,0
25.2.11 1029,0 1027,1 1027,9 -2,2 30,4 -18,6 -2,2 0,7 73,1 -10,8 7,8 19,4 0,3
26.2.11 1027,6 1012,6 1020,2 -2,1 30,6 -17,9 -2,4 1,9 73,1 -8,6 5,8 22,3 0,0
27.2.11 1017,7 1010,5 1013,0 -1,2 67,4 -6,6 -1,3 0,7 73,6 -4,4 2,1 16,2 0,5
28.2.11 1026,1 1017,6 1022,2 2,7 70,6 -2,6 2,5 1,4 73,6 -2,6 14,5 17,2 0,0
1.3.11 1032,5 1026,2 1029,2 -0,7 69,8 -5,8 -1,1 2,5 73,6 -5,2 6,5 20,8 0,0
2.3.11 1031,2 1027,7 1029,3 1,0 56,9 -8,2 0,6 3,0 73,6 -5,4 10,5 25,5 0,0
3.3.11 1029,3 1026,9 1027,9 -1,4 38,5 -14,4 -2,0 3,8 73,6 -5,7 2,8 31,3 0,0
4.3.11 1029,9 1026,3 1028,3 0,3 56,5 -8,1 -0,0 2,0 73,6 -3,6 9,1 24,1 0,0
5.3.11 1026,2 1020,5 1022,6 0,4 51,0 -10,1 0,2 1,8 73,6 -7,7 11,5 24,4 0,0
6.3.11 1029,7 1021,5 1024,7 0,0 44,4 -12,3 -0,8 4,5 73,6 -5,7 7,1 25,9 0,0
7.3.11 1034,1 1029,9 1032,3 -3,0 33,5 -18,4 -3,2 1,4 73,6 -11,2 4,6 25,5 0,0
8.3.11 1031,8 1021,6 1026,7 0,8 19,0 -20,2 0,4 2,5 73,6 -5,3 9,0 31,6 0,0
9.3.11 1021,5 1014,5 1017,9 5,6 32,4 -10,2 4,9 4,1 73,6 -2,9 14,1 35,6 0,0
10.3.11 1016,4 1014,0 1015,3 5,8 49,9 -4,2 4,4 5,6 73,6 3,6 10,5 33,8 0,0
11.3.11 1018,0 1014,3 1016,2 6,2 50,8 -3,3 4,7 6,2 73,6 1,1 8,8 31,6 0,0
12.3.11 1018,0 1007,7 1012,9 5,5 50,2 -5,7 5,4 1,5 73,6 -2,9 14,5 18,7 0,0
13.3.11 1009,2 1007,3 1008,1 5,8 54,4 -3,1 5,7 0,5 73,6 -1,3 12,8 20,8 0,0
14.3.11 1018,6 1009,3 1014,7 8,1 58,5 0,2 8,1 0,8 73,6 3,4 16,3 13,3 0,0
15.3.11 1019,0 1015,6 1017,6 8,4 55,8 -0,8 8,2 1,9 73,6 -0,2 16,5 27,0 0,0
16.3.11 1016,2 1005,3 1010,7 5,3 82,9 2,6 5,0 2,8 73,6 3,1 8,0 19,0 0,0
17.3.11 1009,3 1002,5 1004,6 5,9 87,1 3,8 5,5 3,0 77,2 2,4 8,1 23,4 3,6
18.3.11 1022,7 1009,5 1016,8 2,9 88,1 1,0 1,0 7,2 79,7 1,5 4,4 25,9 2,5
19.3.11 1031,4 1022,6 1027,1 2,4 61,5 -5,6 1,4 4,4 79,7 -3,9 9,4 27,7 0,0
20.3.11 1032,8 1031,1 1031,8 0,6 51,9 -9,7 0,6 1,1 79,7 -7,1 10,6 19,7 0,0
21.3.11 1034,6 1032,6 1033,5 3,3 47,6 -8,9 3,2 0,5 79,7 -6,5 14,4 11,1 0,0
22.3.11 1035,4 1033,5 1034,5 5,8 46,3 -6,9 5,7 1,3 79,7 -5,1 18,2 17,2 0,0
23.3.11 1037,5 1035,0 1036,0 4,9 60,9 -2,8 4,8 1,8 79,7 -2,9 16,8 23,4 0,0
24.3.11 1035,7 1028,1 1032,6 7,0 54,6 -3,4 7,0 1,5 79,7 -3,1 19,0 16,5 0,0
25.3.11 1028,0 1013,2 1019,4 7,7 57,0 -2,2 7,3 2,7 79,7 -1,9 17,9 31,3 0,0
26.3.11 1017,0 1012,7 1014,3 4,3 69,6 -1,0 3,8 3,2 80,6 0,7 10,2 27,0 0,9
27.3.11 1017,1 1011,7 1014,6 4,5 61,2 -3,3 4,5 0,8 80,6 -3,2 12,8 8,2 0,0
28.3.11 1016,0 1011,4 1012,8 4,5 59,6 -3,7 4,5 1,1 80,6 -2,9 14,5 18,0 0,0
29.3.11 1017,0 1014,3 1015,9 6,2 50,4 -5,8 5,8 2,6 80,7 -4,8 16,9 21,9 0,1
30.3.11 1017,4 1014,8 1015,9 8,1 52,3 -2,8 7,7 2,7 80,7 -2,0 19,1 25,9 0,0
31.3.11 1019,1 1017,3 1018,2 9,3 71,2 4,1 8,8 3,2 82,1 3,0 13,4 22,6 1,4
1.4.11 1024,1 1019,0 1021,8 12,4 72,4 7,3 11,3 6,5 83,6 10,7 17,3 37,0 1,5
2.4.11 1023,9 1016,9 1020,6 12,8 67,2 5,7 12,7 1,3 83,6 4,1 21,9 23,0 0,0
3.4.11 1017,1 1011,7 1014,0 14,3 59,6 4,8 14,2 1,1 83,6 5,5 24,7 21,9 0,0
4.4.11 1023,7 1012,0 1017,2 9,3 82,2 6,3 8,6 3,8 91,0 3,5 11,9 28,0 7,4
5.4.11 1026,7 1023,8 1025,2 8,2 64,8 0,8 7,6 3,4 91,0 0,5 14,7 33,8 0,0
6.4.11 1028,2 1025,1 1026,9 11,0 72,9 6,2 10,1 5,0 91,0 8,0 14,8 29,5 0,0
7.4.11 1026,5 1017,9 1021,8 14,1 63,9 5,9 12,9 7,1 91,0 4,7 23,1 39,2 0,0
8.4.11 1022,5 1016,3 1020,1 11,8 46,2 -0,7 9,7 9,5 91,0 4,8 18,4 36,5 0,0
9.4.11 1021,4 1017,0 1019,5 11,4 43,8 -1,8 9,6 8,4 91,0 4,4 18,1 26,6 0,0
10.4.11 1023,6 1021,4 1022,6 9,1 51,1 -2,8 9,0 1,8 91,0 -1,4 20,2 17,2 0,0
11.4.11 1023,7 1015,4 1020,6 10,8 51,2 -1,1 10,6 1,8 91,0 0,5 21,2 19,0 0,0
12.4.11 1018,9 1011,9 1014,9 7,1 68,3 1,5 5,6 5,8 94,1 1,5 11,4 44,6 3,1
13.4.11 1018,8 1014,1 1015,7 3,9 59,8 -3,6 0,8 9,9 94,3 0,4 8,2 45,0 0,2
14.4.11 1017,3 1015,1 1016,1 5,0 53,4 -4,1 4,6 2,9 94,3 -1,5 11,2 22,6 0,0
15.4.11 1020,3 1017,1 1018,5 5,8 68,4 0,1 5,5 2,3 94,3 2,2 12,1 24,8 0,0
16.4.11 1022,1 1020,1 1021,0 7,5 62,9 0,1 7,5 0,4 94,3 3,3 14,2 13,6 0,0
17.4.11 1024,2 1021,8 1023,0 8,1 58,5 -1,0 8,0 1,3 94,3 2,5 15,2 24,8 0,0
18.4.11 1023,9 1018,3 1021,6 8,9 48,3 -4,0 8,8 1,2 94,3 -1,6 17,9 27,7 0,0
19.4.11 1019,0 1016,0 1017,7 11,1 43,9 -3,0 11,0 1,8 94,3 0,2 20,2 31,3 0,0
20.4.11 1017,8 1015,7 1016,9 12,9 44,4 -1,3 12,8 1,0 94,3 1,6 23,2 21,6 0,0
21.4.11 1017,2 1014,7 1016,3 15,0 45,7 0,7 14,9 2,1 94,3 2,7 26,2 19,4 0,0
22.4.11 1015,3 1010,8 1012,9 16,1 41,9 0,7 16,0 1,4 94,3 5,1 25,0 20,8 0,0
23.4.11 1013,3 1010,8 1011,6 17,6 33,9 -0,3 17,4 2,3 94,3 4,8 24,8 26,2 0,0
24.4.11 1018,8 1011,2 1014,2 17,6 33,7 -0,3 17,3 3,2 94,3 5,9 24,8 26,2 0,0
25.4.11 1019,7 1017,8 1018,8 10,7 50,5 -0,3 10,2 3,7 94,3 1,6 18,8 28,0 0,0
26.4.11 1018,7 1015,6 1017,2 6,9 82,2 4,0 6,9 0,8 95,8 1,5 13,4 20,8 1,5
27.4.11 1016,4 1014,3 1015,5 9,9 76,9 5,6 9,7 1,8 95,8 5,2 15,1 17,6 0,0
28.4.11 1015,3 1012,1 1013,7 12,0 69,2 4,9 11,9 1,7 96,7 6,1 19,8 49,6 0,9
29.4.11 1013,6 1010,1 1011,8 12,4 63,3 3,7 12,1 2,8 96,7 4,5 21,1 35,2 0,0
30.4.11 1010,9 1007,5 1009,4 13,2 57,2 3,5 12,9 2,7 108,9 6,8 21,4 28,0 12,2
1.5.11 1010,9 1008,5 1009,6 11,3 51,0 -0,8 10,4 5,0 108,9 5,0 17,4 19,4 0,0
2.5.11 1010,8 1007,5 1009,0 5,8 69,1 0,4 4,8 4,1 109,3 -0,3 12,3 31,6 0,4
3.5.11 1016,2 1006,3 1010,7 3,7 74,1 -1,2 1,7 7,2 110,3 -0,8 10,2 34,9 1,0
4.5.11 1020,7 1016,2 1017,6 4,0 57,9 -4,9 3,5 2,4 110,3 -4,8 12,8 22,6 0,0
5.5.11 1023,7 1020,7 1022,5 8,3 50,0 -4,4 8,3 0,9 110,3 -2,2 17,3 17,6 0,0
6.5.11 1024,1 1021,3 1022,9 11,7 36,8 -4,2 11,4 2,1 110,3 2,8 20,8 18,7 0,0
7.5.11 1023,0 1020,7 1022,2 14,3 36,8 -2,4 14,2 1,5 110,3 2,5 23,3 31,3 0,0
8.5.11 1025,0 1021,6 1022,4 15,9 34,1 -1,0 15,8 2,1 110,3 6,1 25,7 26,6 0,0
9.5.11 1026,9 1024,9 1025,8 15,3 38,2 -0,9 15,1 2,2 110,3 5,4 22,4 33,1 0,0
10.5.11 1026,4 1023,4 1025,3 16,7 35,6 -0,4 16,6 1,0 110,3 4,8 25,0 23,0 0,0
11.5.11 1024,2 1018,4 1021,3 17,8 42,8 2,9 17,6 2,2 110,3 7,4 27,1 25,5 0,0
12.5.11 1019,4 1014,1 1016,3 13,9 72,0 8,6 13,9 0,9 131,4 8,4 22,4 32,4 21,1
13.5.11 1022,0 1016,4 1019,8 13,6 56,4 3,1 13,5 1,4 131,4 5,7 21,2 12,9 0,0
14.5.11 1019,0 1011,1 1014,7 13,5 51,8 2,9 13,2 2,3 139,2 7,3 20,6 29,5 7,8
15.5.11 1020,3 1015,0 1017,3 10,1 63,9 2,8 9,8 2,3 143,7 5,7 16,2 24,4 4,5
16.5.11 1022,5 1020,2 1021,5 8,5 69,6 2,9 7,8 3,7 143,7 1,7 13,2 31,3 0,0
17.5.11 1021,7 1019,1 1020,3 13,6 62,0 6,0 13,0 4,2 143,7 10,4 18,9 20,8 0,0
18.5.11 1020,5 1016,0 1018,4 15,8 52,0 3,6 15,6 2,3 143,7 4,5 25,0 31,3 0,0
19.5.11 1018,1 1015,7 1016,6 16,2 58,0 6,6 16,1 1,1 146,4 7,4 25,4 29,8 2,7
20.5.11 1019,5 1017,2 1018,2 17,6 60,4 8,2 17,5 2,2 146,4 10,7 26,5 40,3 0,0
21.5.11 1021,9 1019,2 1020,6 15,6 68,8 9,4 15,6 0,5 152,6 8,5 23,0 11,8 6,2
22.5.11 1020,2 1016,5 1018,2 16,9 66,6 10,1 16,9 0,8 163,5 12,4 25,0 23,2 10,9
23.5.11 1025,8 1019,5 1023,5 16,7 47,8 3,4 16,4 2,6 163,5 10,3 22,2 26,6 0,0
24.5.11 1024,8 1020,0 1021,5 16,6 46,3 3,0 16,2 4,3 163,5 5,5 25,5 34,5 0,0
25.5.11 1028,3 1021,9 1025,8 14,1 35,8 -2,7 14,0 1,4 163,5 3,1 22,0 15,4 0,0
26.5.11 1021,9 1010,4 1015,2 18,0 37,5 2,2 17,6 4,1 163,5 9,1 28,1 36,3 0,0
27.5.11 1016,2 1012,7 1013,7 14,9 50,1 4,0 14,3 4,5 163,5 11,5 18,2 32,4 0,0
28.5.11 1018,3 1015,0 1016,6 13,0 50,4 1,8 12,9 1,4 163,5 7,6 18,4 16,3 0,0
29.5.11 1017,8 1015,1 1016,3 15,6 44,1 1,1 15,2 3,5 163,5 5,1 24,2 37,4 0,0
30.5.11 1018,5 1012,8 1016,4 19,5 40,7 4,1 19,5 1,7 163,5 9,2 28,2 36,0 0,0
31.5.11 1014,9 1011,5 1012,4 20,5 49,1 8,7 20,2 3,3 163,5 14,8 27,7 35,6 0,0
1.6.11 1026,8 1014,8 1021,3 10,8 87,2 8,7 9,4 6,9 170,1 8,9 16,6 36,0 6,6
2.6.11 1029,7 1026,8 1028,4 14,9 50,8 2,9 14,1 5,3 170,1 10,0 21,8 30,6 0,0
3.6.11 1029,6 1024,1 1027,2 17,9 48,4 6,0 17,3 5,7 170,1 8,7 25,6 36,7 0,0
4.6.11 1024,6 1014,1 1019,4 20,4 51,2 9,0 20,2 3,0 170,1 12,2 28,2 37,4 0,0
5.6.11 1014,4 1007,3 1010,5 20,7 58,4 11,0 20,6 1,4 175,8 13,5 29,1 30,6 5,7
6.6.11 1008,4 1005,2 1006,5 18,2 71,0 12,3 18,2 1,2 176,0 13,3 23,5 21,9 0,2
7.6.11 1008,2 1004,9 1006,9 19,2 63,5 11,1 19,1 1,2 176,0 13,7 26,4 27,3 0,0
8.6.11 1009,8 1002,2 1004,5 17,7 71,7 12,2 17,2 3,7 181,8 13,1 22,8 24,1 5,8
9.6.11 1016,1 1010,0 1013,3 14,6 52,6 4,3 14,1 3,6 181,8 9,9 20,1 21,9 0,0
10.6.11 1016,7 1015,0 1015,9 13,7 56,0 4,1 13,7 0,7 181,8 6,5 20,8 21,6 0,0
11.6.11 1018,0 1014,9 1015,8 15,2 63,5 7,5 14,9 2,6 181,8 8,6 21,1 21,9 0,0
12.6.11 1019,2 1016,9 1018,2 16,7 54,3 4,6 16,6 1,0 181,8 11,1 24,2 23,0 0,0
13.6.11 1017,8 1016,7 1017,1 15,2 65,9 8,5 15,1 1,3 183,0 11,2 22,4 35,2 1,2
14.6.11 1019,2 1016,8 1017,9 16,2 72,8 10,6 15,9 2,5 187,4 10,2 24,3 21,9 4,4
15.6.11 1019,0 1016,4 1018,0 19,2 64,7 10,8 19,0 2,8 187,4 12,0 26,9 25,5 0,0
16.6.11 1017,0 1012,0 1014,7 20,2 55,3 9,6 19,9 3,4 191,0 14,0 28,5 37,0 3,6
17.6.11 1017,5 1009,0 1014,6 17,9 51,5 6,1 17,5 4,1 191,0 13,2 23,2 33,4 0,0
18.6.11 1009,6 1006,5 1007,9 15,2 67,4 8,9 14,5 4,9 200,2 12,0 17,9 39,9 9,2
19.6.11 1013,7 1009,4 1010,5 12,0 70,3 6,6 10,7 6,5 206,7 9,6 15,7 35,2 6,5
20.6.11 1016,1 1013,8 1015,0 13,7 67,5 7,0 12,6 6,6 207,6 10,3 20,7 36,3 0,9
21.6.11 1016,7 1014,2 1015,4 16,8 79,5 12,9 16,2 4,2 213,0 12,8 21,7 33,1 5,4
22.6.11 1017,1 1011,1 1014,6 19,2 71,6 13,2 18,9 2,6 219,5 14,8 28,1 36,7 6,5
23.6.11 1017,7 1015,1 1016,6 16,7 58,8 7,5 16,3 4,2 219,5 11,2 21,8 35,2 0,0
24.6.11 1022,1 1017,3 1019,4 13,0 67,3 6,4 12,3 4,9 226,1 9,4 18,8 33,8 6,6
25.6.11 1024,3 1022,1 1023,4 11,9 70,2 5,8 11,2 4,4 226,1 7,7 17,6 31,7 0,0
26.6.11 1024,1 1022,1 1023,1 16,7 72,3 11,0 16,4 3,6 227,3 11,5 23,3 26,2 1,2
27.6.11 1024,0 1020,0 1022,4 20,7 55,4 9,4 20,7 1,7 227,3 9,7 30,6 14,4 0,0
28.6.11 1021,0 1016,4 1019,3 22,8 44,6 7,7 22,7 2,3 227,3 12,9 31,7 24,1 0,0
29.6.11 1017,7 1013,5 1015,6 23,5 36,8 6,5 23,4 3,5 227,3 13,4 32,7 33,4 0,0
30.6.11 1020,6 1014,5 1017,7 14,2 76,7 10,0 13,6 4,5 240,6 9,6 20,7 21,9 13,3
1.7.11 1020,8 1017,8 1019,1 11,3 68,3 5,1 11,0 2,9 241,1 4,7 18,2 18,3 0,5
2.7.11 1018,0 1012,1 1014,6 11,1 70,4 5,5 10,6 3,7 242,4 7,9 15,3 26,6 1,3
3.7.11 1013,1 1008,7 1010,7 10,2 93,7 9,2 9,0 6,5 268,5 9,0 11,4 26,9 26,1
4.7.11 1015,4 1012,9 1014,1 14,1 91,8 12,7 14,0 1,5 273,4 11,2 19,8 10,0 4,9
5.7.11 1015,7 1013,4 1014,8 17,3 77,2 12,6 17,3 0,9 273,7 13,3 23,8 9,3 0,3
6.7.11 1013,5 1009,8 1011,3 20,6 58,8 10,0 20,5 2,4 273,7 12,2 29,2 27,0 0,0
7.7.11 1013,1 1008,7 1011,7 21,4 48,8 8,3 21,3 1,0 287,7 12,5 29,3 46,4 14,0
8.7.11 1016,1 1009,0 1013,1 18,2 68,5 10,7 17,8 3,7 300,9 13,8 24,2 37,8 13,2
9.7.11 1018,7 1016,0 1016,9 20,9 51,8 9,1 20,7 3,9 300,9 13,1 28,8 41,4 0,0
10.7.11 1019,7 1015,6 1018,2 21,0 55,1 10,9 20,9 2,3 324,9 15,4 27,5 42,1 24,0
11.7.11 1020,3 1016,4 1018,7 19,3 65,6 11,1 19,1 2,6 330,0 14,1 25,1 18,0 5,1
12.7.11 1015,0 1012,5 1014,4 19,1 59,3 10,1 18,8 4,0 330,0 10,7 25,7 19,4 0,0
13.7.11 1012,8 1006,8 1009,7 20,7 61,1 12,5 20,6 2,0 331,8 16,6 26,4 38,1 1,8
14.7.11 1017,4 1008,3 1014,0 15,8 63,4 7,8 14,5 7,3 332,6 12,1 21,6 36,7 0,8
15.7.11 1018,5 1016,7 1017,7 15,6 45,7 3,3 14,7 6,4 332,6 11,3 21,5 49,6 0,0
16.7.11 1018,6 1007,6 1013,9 17,9 45,2 3,8 17,8 1,9 332,6 9,4 24,1 34,9 0,0
17.7.11 1007,5 1003,2 1005,0 17,2 56,5 8,0 16,5 6,2 340,6 11,5 23,5 45,0 8,0
18.7.11 1008,5 1005,7 1006,7 14,3 69,4 8,3 13,8 3,4 343,1 10,7 21,0 38,5 2,5
19.7.11 1008,9 1003,4 1006,7 16,4 59,8 6,8 16,3 2,1 343,1 7,7 24,4 26,2 0,0
20.7.11 1007,3 1000,9 1003,4 15,7 72,4 10,5 15,5 1,9 356,2 13,4 18,4 18,3 13,1
21.7.11 1008,2 1006,9 1007,7 15,7 76,0 11,0 15,4 2,9 377,0 12,1 21,2 21,2 20,8
22.7.11 1009,4 1006,5 1007,9 14,2 69,6 8,1 13,3 5,7 377,0 11,7 20,0 30,6 0,0
23.7.11 1009,8 1008,9 1009,4 12,9 55,8 3,4 12,2 4,5 377,0 7,4 17,7 30,1 0,0
24.7.11 1011,2 1008,6 1009,9 11,3 65,7 4,6 10,6 3,8 377,0 4,8 16,2 31,6 0,0
25.7.11 1011,8 1010,0 1010,7 12,9 64,5 5,8 12,6 2,2 377,0 7,9 17,4 31,3 0,0
26.7.11 1015,5 1011,8 1013,1 14,8 56,3 3,8 14,8 0,6 377,0 4,3 23,6 15,8 0,0
27.7.11 1017,7 1015,5 1016,8 17,8 53,3 6,4 17,7 1,1 377,0 8,1 26,4 22,6 0,0
28.7.11 1017,9 1016,1 1017,2 18,3 54,5 7,3 18,0 3,4 377,0 9,2 26,5 27,7 0,0
29.7.11 1018,1 1014,8 1016,6 16,3 63,2 9,0 16,2 1,7 377,2 12,7 20,8 16,2 0,2
30.7.11 1015,8 1012,9 1013,9 12,3 82,1 9,1 11,4 5,1 390,3 11,1 15,2 23,4 13,1
31.7.11 1016,2 1013,3 1014,7 12,1 93,6 11,0 11,9 2,1 393,0 11,0 13,7 14,7 2,7
1.8.11 1018,2 1015,9 1016,7 15,5 80,8 11,8 15,4 1,1 393,0 12,2 22,3 10,4 0,0
2.8.11 1019,3 1018,0 1018,7 18,6 65,9 10,7 18,6 0,9 393,0 10,3 27,5 20,5 0,0
3.8.11 1019,8 1016,4 1018,0 20,3 65,6 12,9 20,2 3,0 393,0 12,3 27,4 28,4 0,0
4.8.11 1017,2 1015,4 1015,9 18,9 79,5 15,2 18,8 1,0 422,8 16,4 22,4 14,4 29,8
5.8.11 1016,0 1013,4 1015,0 18,4 80,4 14,3 18,3 1,0 429,2 12,8 26,0 24,1 6,4
6.8.11 1014,0 1005,8 1010,2 21,3 67,4 13,8 21,2 1,9 433,1 15,7 27,2 30,9 3,9
7.8.11 1009,6 1004,4 1007,3 18,0 76,2 13,5 17,7 3,5 439,2 14,4 21,6 20,8 6,1
8.8.11 1012,1 1006,6 1009,4 15,1 65,3 8,0 14,2 6,7 441,9 11,7 21,1 49,6 2,7
9.8.11 1019,3 1012,2 1015,3 13,3 71,7 8,1 12,3 5,7 448,4 10,7 17,9 33,8 6,5
10.8.11 1023,8 1019,5 1022,0 12,3 66,1 5,4 11,4 5,2 448,4 9,2 16,4 26,9 0,0
11.8.11 1020,4 1014,2 1016,7 16,6 46,1 4,5 15,8 6,8 448,4 12,0 23,5 46,8 0,0
12.8.11 1014,2 1011,7 1012,6 17,0 62,2 9,4 16,7 3,5 448,4 12,2 22,2 43,2 0,0
13.8.11 1012,0 1011,1 1011,5 17,6 73,7 12,3 17,2 3,5 450,0 14,8 22,1 17,6 1,6
14.8.11 1012,0 1007,5 1010,0 19,4 71,0 13,1 19,2 2,7 456,4 14,7 26,8 46,4 6,4
15.8.11 1018,3 1010,6 1014,1 16,8 80,3 13,0 16,8 0,3 456,4 13,7 22,1 5,0 0,0
16.8.11 1019,3 1017,7 1018,6 17,2 69,0 10,1 17,1 1,3 456,4 11,3 25,7 16,5 0,0
17.8.11 1019,4 1016,4 1018,0 20,0 52,9 7,9 20,0 0,6 456,4 11,6 27,7 15,1 0,0
18.8.11 1017,6 1014,4 1016,2 22,1 53,5 11,1 22,0 1,9 456,4 13,3 30,1 27,7 0,0
19.8.11 1020,4 1013,6 1015,9 20,3 69,7 14,3 19,9 4,1 462,9 14,9 26,5 36,7 6,5
20.8.11 1023,1 1020,5 1022,0 18,1 55,8 6,7 18,1 1,3 462,9 8,5 26,2 21,9 0,0
21.8.11 1021,8 1018,1 1019,9 19,5 64,9 12,3 19,5 0,9 464,5 11,2 29,6 24,4 1,6
22.8.11 1019,8 1017,8 1018,6 24,1 61,6 15,0 24,0 1,3 464,5 16,7 32,4 23,4 0,0
23.8.11 1019,9 1015,1 1017,0 24,3 60,0 14,8 24,2 1,2 464,5 15,8 33,1 24,1 0,0
24.8.11 1018,7 1014,5 1016,2 26,0 51,0 12,8 25,8 1,5 465,1 18,7 33,4 45,3 0,6
25.8.11 1017,9 1014,5 1016,2 19,8 52,6 12,2 23,8 0,7 466,5 15,8 32,1 19,8 1,4
26.8.11 1015,2 1005,6 1010,5 25,6 49,6 13,0 25,6 1,5 466,5 19,6 32,8 35,2 0,0
27.8.11 1018,3 1005,4 1013,1 15,0 74,2 10,3 14,3 5,2 471,6 11,6 24,1 34,9 5,1
28.8.11 1020,6 1017,4 1019,0 15,1 58,9 6,3 14,5 4,4 471,6 11,5 20,7 36,0 0,0
29.8.11 1018,0 1014,7 1015,8 15,0 56,2 5,3 14,5 3,7 471,6 9,5 20,7 42,1 0,0
30.8.11 1016,3 1014,7 1015,6 12,5 56,8 3,4 12,3 1,9 471,6 7,2 17,4 18,2 0,0
31.8.11 1015,6 1013,7 1014,7 12,8 56,4 2,7 12,8 0,9 471,6 2,9 22,2 21,9 0,0
1.9.11 1015,4 1013,7 1014,6 15,0 54,6 3,8 15,0 0,9 471,6 5,1 24,8 25,5 0,0
2.9.11 1015,6 1014,4 1015,0 15,9 59,9 6,5 15,9 0,9 471,6 6,1 27,7 19,8 0,0
3.9.11 1016,2 1013,6 1015,3 19,0 63,7 10,7 19,0 0,6 471,6 10,8 28,1 20,8 0,0
4.9.11 1014,0 1010,3 1012,5 21,3 57,6 11,4 21,3 0,9 471,6 13,1 30,3 23,0 0,0
5.9.11 1020,7 1010,4 1014,1 17,0 81,9 13,7 16,7 3,1 509,9 12,8 20,7 27,3 38,3
6.9.11 1022,8 1015,9 1020,5 15,1 61,6 6,6 14,5 4,5 509,9 7,8 21,4 42,2 0,0
7.9.11 1015,9 1010,3 1012,5 14,7 60,5 6,9 13,4 7,7 511,5 12,5 17,4 39,9 1,6
8.9.11 1013,4 1009,6 1010,7 11,8 81,7 8,7 10,7 5,6 516,6 10,9 12,9 20,8 5,1
9.9.11 1015,2 1011,0 1013,2 14,6 83,5 11,7 14,4 2,4 517,0 11,6 20,6 28,8 0,4
10.9.11 1015,6 1013,5 1014,7 19,5 75,4 14,5 19,4 1,3 517,0 15,7 25,8 35,2 0,0
11.9.11 1015,6 1009,9 1013,1 22,0 65,2 13,9 21,9 1,6 534,7 14,1 30,5 16,5 17,7
12.9.11 1016,5 1012,3 1014,7 17,0 67,7 9,9 16,5 4,3 534,7 13,5 21,8 41,0 0,0
13.9.11 1014,7 1012,9 1014,0 17,6 68,4 11,5 17,1 4,9 536,2 13,4 22,1 46,0 1,5
14.9.11 1019,2 1014,7 1016,8 14,6 62,7 6,4 14,0 4,3 536,2 7,7 20,1 28,8 0,0
15.9.11 1020,9 1018,9 1019,8 11,5 63,1 3,6 11,4 1,2 536,2 3,0 20,4 20,8 0,0
16.9.11 1020,9 1016,3 1018,9 13,0 59,9 3,6 13,0 0,5 536,2 2,8 22,1 11,5 0,0
17.9.11 1016,2 1009,9 1013,8 17,4 60,5 9,3 17,2 2,2 581,7 12,1 24,7 31,6 45,5
18.9.11 1009,9 1005,2 1007,3 12,7 94,8 11,8 12,5 1,7 604,3 9,8 15,0 28,0 22,6
19.9.11 1018,2 1009,5 1012,7 10,9 81,3 7,6 10,8 1,1 604,3 8,3 15,4 18,7 0,0
20.9.11 1024,3 1018,5 1022,4 13,1 69,1 6,4 13,0 1,2 604,3 7,7 21,1 17,6 0,0
21.9.11 1024,2 1019,0 1021,4 12,0 70,4 6,0 11,9 0,8 604,3 4,7 20,7 9,3 0,0
22.9.11 1019,9 1018,4 1019,0 11,8 76,7 7,4 11,6 1,9 604,3 5,2 19,5 21,9 0,0
23.9.11 1020,1 1017,9 1019,1 11,6 74,5 6,5 11,5 0,5 604,3 6,1 18,9 18,3 0,0
24.9.11 1019,1 1017,1 1018,4 11,4 67,9 4,5 11,4 0,7 604,3 2,4 20,8 21,3 0,0
25.9.11 1022,3 1018,7 1020,1 13,8 68,3 6,9 13,7 0,7 604,3 4,3 24,1 12,9 0,0
26.9.11 1026,5 1022,3 1024,3 15,8 66,0 7,8 15,8 0,4 604,3 6,1 27,3 16,2 0,0
27.9.11 1030,5 1026,5 1028,2 16,1 70,4 9,6 16,1 0,8 604,3 7,5 27,8 17,3 0,0
28.9.11 1031,3 1029,0 1030,2 16,3 76,3 11,4 16,2 0,7 604,3 11,7 24,1 17,2 0,0
29.9.11 1030,1 1028,7 1029,4 14,9 66,4 6,9 14,9 0,3 604,3 7,3 24,2 16,9 0,0
30.9.11 1029,2 1027,0 1028,2 15,6 58,2 4,7 15,6 0,8 604,3 6,1 26,5 24,1 0,0
1.10.11 1027,9 1026,3 1027,0 15,9 57,7 5,2 15,9 0,4 604,3 6,4 26,2 20,5 0,0
2.10.11 1027,1 1023,9 1025,6 16,2 60,2 6,0 16,2 0,3 604,3 5,8 29,7 12,2 0,0
3.10.11 1024,3 1021,2 1022,7 15,6 64,8 7,5 15,6 1,4 604,3 6,2 28,1 25,5 0,0
4.10.11 1022,1 1019,7 1021,2 15,2 67,5 8,1 15,1 2,3 604,3 7,3 23,9 33,4 0,0
5.10.11 1022,0 1019,9 1020,9 14,1 75,8 9,7 13,9 2,0 604,3 10,7 19,3 20,8 0,0
6.10.11 1019,9 1007,2 1013,3 14,8 67,7 8,4 13,8 5,8 611,6 7,8 20,1 50,7 7,3
7.10.11 1010,4 1008,2 1009,1 7,7 80,3 4,3 6,8 4,5 613,0 5,7 12,4 30,6 1,4
8.10.11 1012,6 1008,8 1010,2 5,4 87,3 3,4 4,2 5,6 632,7 3,1 8,8 28,0 19,7
9.10.11 1021,4 1012,7 1018,5 5,0 77,0 0,9 4,6 3,0 633,0 1,7 11,3 21,6 0,3
10.10.11 1019,4 1013,8 1015,8 9,5 90,4 7,9 8,2 6,3 642,4 5,1 14,3 36,0 9,4
11.10.11 1016,8 1015,5 1016,1 12,8 88,2 10,8 10,3 10,2 643,9 11,8 13,8 37,4 1,5
12.10.11 1019,8 1015,3 1017,1 8,8 96,0 8,2 8,5 1,9 678,7 6,5 12,1 28,4 34,8
13.10.11 1029,5 1019,6 1024,7 7,3 81,0 3,8 7,2 7,2 681,0 2,2 13,5 20,1 2,3
14.10.11 1032,4 1029,2 1030,8 5,2 73,6 0,1 5,0 1,9 681,0 0,1 12,9 17,2 0,0
15.10.11 1032,4 1028,4 1030,1 3,9 63,9 -3,5 3,7 1,3 681,0 -3,6 12,8 28,8 0,0
16.10.11 1028,7 1024,7 1026,7 6,3 58,7 -1,9 5,7 3,0 681,0 -0,6 13,0 34,9 0,0
17.10.11 1025,0 1019,4 1022,4 6,6 64,3 -0,2 6,5 1,6 681,0 -0,5 16,1 19,4 0,0
18.10.11 1019,4 1009,9 1014,0 10,3 69,7 4,2 9,1 5,8 683,7 2,8 18,8 41,4 2,7
19.10.11 1018,2 1011,9 1014,2 5,1 86,1 2,9 4,7 2,5 693,4 3,7 7,5 22,6 9,7
20.10.11 1025,5 1018,0 1021,3 4,6 78,1 0,9 3,6 4,3 693,8 -1,0 10,7 26,6 0,4
21.10.11 1027,4 1025,5 1026,3 1,7 72,8 -3,4 1,7 0,3 694,0 -4,2 12,4 14,4 0,2
22.10.11 1026,9 1022,0 1024,3 0,9 69,3 -4,5 0,9 0,8 694,0 -5,6 9,5 20,5 0,0
23.10.11 1022,2 1017,9 1020,2 2,1 80,4 -1,1 1,5 2,4 694,0 -2,0 8,6 29,5 0,0
24.10.11 1017,7 1011,5 1014,0 8,3 68,3 2,6 6,7 7,5 694,0 4,5 11,8 52,2 0,0
25.10.11 1011,7 1006,4 1008,6 8,5 67,1 2,5 7,7 4,5 694,0 6,3 11,7 35,2 0,0
26.10.11 1018,0 1006,5 1013,3 8,8 87,3 6,8 8,6 1,4 695,4 7,4 10,8 28,8 1,4
27.10.11 1018,4 1016,2 1017,5 8,5 90,7 7,0 8,3 1,8 695,4 5,5 10,2 13,6 0,0
28.10.11 1026,4 1018,5 1022,6 9,3 78,3 5,4 9,0 2,5 695,4 4,1 16,1 23,0 0,0
29.10.11 1027,0 1023,8 1025,4 7,8 81,3 4,4 7,7 0,8 695,4 2,0 15,8 17,2 0,0
30.10.11 1023,6 1021,9 1022,6 9,1 81,4 5,9 9,0 0,9 695,4 6,4 14,1 15,8 0,0
31.10.11 1022,3 1018,5 1020,5 8,8 85,3 6,2 8,6 1,0 695,4 2,8 15,3 25,2 0,0
1.11.11 1018,5 1017,1 1017,7 7,1 89,8 5,5 7,0 1,0 695,4 5,8 8,4 26,2 0,0
2.11.11 1018,2 1013,8 1016,7 5,0 94,5 4,2 4,7 2,0 695,4 3,6 7,3 26,6 0,0
3.11.11 1013,9 1008,4 1011,2 4,3 89,1 2,5 3,6 3,2 695,4 2,7 8,7 27,7 0,0
4.11.11 1009,7 1007,1 1008,5 5,5 84,2 2,9 5,0 3,2 695,4 3,1 11,4 29,1 0,0
5.11.11 1011,5 1007,9 1009,3 5,7 89,8 4,1 5,2 3,1 695,4 3,5 9,1 27,3 0,0
6.11.11 1014,9 1011,4 1013,1 8,6 90,1 7,0 8,0 3,8 695,4 6,6 9,8 21,9 0,0
7.11.11 1018,3 1014,9 1016,6 8,3 70,5 2,8 7,9 3,3 695,4 3,6 13,5 32,4 0,0
8.11.11 1019,6 1018,1 1018,9 6,8 80,9 3,7 5,7 5,2 695,4 5,2 10,5 30,6 0,0
9.11.11 1022,4 1019,2 1020,8 5,7 91,7 4,4 5,4 1,9 695,4 4,4 7,8 22,6 0,0
10.11.11 1023,3 1021,2 1022,1 5,0 91,8 3,7 4,8 2,1 695,4 3,7 6,6 21,2 0,0
11.11.11 1027,0 1022,9 1024,9 0,8 75,2 -3,1 0,2 3,2 695,4 -0,9 4,3 30,6 0,0
12.11.11 1032,8 1027,0 1030,3 -0,1 75,7 -4,0 -0,6 2,8 695,4 -2,0 5,1 22,5 0,0
13.11.11 1032,8 1029,5 1031,5 2,4 62,9 -5,1 2,3 0,9 695,4 -3,3 12,0 19,4 0,0
14.11.11 1029,5 1022,7 1025,8 0,3 66,1 -5,9 0,3 0,3 695,4 -5,4 11,2 16,9 0,0
15.11.11 1022,6 1020,1 1021,4 -1,0 70,8 -6,0 -1,0 0,7 695,4 -6,8 12,2 11,1 0,0
16.11.11 1021,8 1020,4 1021,3 -1,3 71,3 -6,1 -1,4 0,6 695,4 -6,2 6,7 18,0 0,0
17.11.11 1023,0 1020,9 1021,6 -0,5 84,3 -2,8 -1,5 4,0 695,4 -3,3 3,1 31,6 0,0
18.11.11 1023,8 1021,8 1022,8 3,5 93,7 2,5 3,5 0,3 695,4 1,1 6,8 11,8 0,0
19.11.11 1022,2 1020,8 1021,6 4,1 90,1 2,5 4,0 0,8 695,6 2,8 8,1 13,3 0,2
20.11.11 1022,2 1020,0 1021,2 2,2 86,3 0,1 2,1 0,4 695,7 0,7 3,5 15,8 0,1
21.11.11 1020,1 1017,4 1018,4 4,2 79,0 0,6 4,2 0,3 695,7 1,5 11,4 11,8 0,0
22.11.11 1022,0 1017,4 1019,0 2,1 85,0 -0,2 2,0 1,6 695,9 -1,5 9,2 20,8 0,2
23.11.11 1029,5 1022,0 1025,0 0,2 88,7 -1,5 0,0 1,8 696,1 -3,0 6,4 18,7 0,2
24.11.11 1031,8 1029,3 1030,5 -1,0 84,9 -3,3 -1,0 0,2 696,3 -4,5 6,4 10,8 0,2
25.11.11 1029,7 1024,1 1026,1 -1,4 84,7 -3,7 -1,9 2,2 696,5 -4,9 5,7 20,8 0,2
26.11.11 1029,2 1024,3 1026,9 1,6 88,9 -0,1 0,7 4,0 696,5 -0,9 3,5 27,0 0,0
27.11.11 1024,3 1017,1 1020,2 4,5 71,8 -0,4 2,6 7,3 696,5 2,4 8,8 38,1 0,0
28.11.11 1027,7 1022,8 1025,6 4,0 67,8 -1,7 3,8 2,1 696,5 -2,7 11,4 21,2 0,0
29.11.11 1023,9 1018,9 1020,7 0,3 76,3 -3,4 -0,4 2,5 696,6 -2,7 5,3 32,0 0,1
30.11.11 1027,2 1019,5 1023,8 3,7 86,5 1,6 3,4 2,2 696,8 -0,4 6,6 19,8 0,2
1.12.11 1026,2 1014,5 1019,9 2,4 89,4 0,7 2,3 1,1 696,8 -1,1 7,4 25,5 0,0
2.12.11 1014,7 1009,5 1011,6 7,2 69,8 1,5 6,6 3,0 699,6 3,2 13,4 37,4 2,8
3.12.11 1014,8 1005,3 1009,9 3,7 78,2 0,1 1,9 6,9 704,8 2,5 5,6 42,8 5,2
4.12.11 1005,6 996,0 1001,7 5,8 88,4 4,0 4,6 5,2 716,5 3,8 8,3 43,2 11,7
5.12.11 1005,6 990,0 999,7 1,7 79,5 -1,5 -0,3 6,9 728,6 0,1 4,7 36,7 12,1
6.12.11 1007,4 1004,5 1005,6 0,5 83,9 -1,9 -0,2 3,9 728,6 -0,5 2,6 25,2 0,0
7.12.11 1008,3 997,8 1003,7 1,1 81,8 -1,6 -1,3 7,5 732,5 0,2 2,3 33,8 3,9
8.12.11 1020,0 1005,8 1014,7 2,2 63,9 -3,8 -2,1 12,0 732,5 1,4 3,8 43,5 0,0
9.12.11 1012,0 1005,8 1008,5 3,7 76,9 -0,0 1,1 9,7 741,2 0,2 6,5 51,1 8,7
10.12.11 1015,4 1010,1 1011,9 0,3 72,8 -4,0 -0,8 4,6 741,2 -3,3 4,0 30,9 0,0
11.12.11 1017,2 1012,8 1015,5 -2,5 73,0 -6,8 -2,5 0,3 741,5 -7,5 3,5 17,6 0,3
12.12.11 1013,7 1006,0 1009,2 2,7 84,8 0,4 2,0 3,2 742,8 1,0 5,1 31,6 1,3
13.12.11 1013,4 1002,2 1006,8 2,7 86,7 0,6 0,1 9,9 746,3 0,6 7,0 53,6 3,5
14.12.11 1007,3 1000,5 1004,2 4,9 75,9 0,9 2,2 9,4 752,1 2,1 7,1 44,6 5,8
15.12.11 1008,0 1005,6 1006,8 2,3 71,4 -2,3 -0,4 8,8 753,7 0,8 3,3 47,5 1,6
16.12.11 1005,6 973,4 992,9 2,3 78,9 -1,0 -1,1 12,6 769,9 -0,1 6,4 53,2 16,2
17.12.11 1003,4 984,9 995,3 0,7 80,9 -2,2 -2,1 9,0 773,0 0,1 3,1 36,7 3,1
18.12.11 1011,3 1003,3 1006,0 -0,5 80,2 -3,5 -1,7 5,1 773,5 -1,9 0,4 28,4 0,5
19.12.11 1016,4 1011,3 1014,4 -2,0 75,6 -5,7 -2,4 2,8 773,5 -3,0 -0,5 18,0 0,0
20.12.11 1015,7 1006,2 1009,6 -2,8 70,2 -7,4 -4,0 4,5 773,5 -4,2 -1,8 19,4 0,0
21.12.11 1016,5 1008,7 1012,2 0,5 84,5 -1,8 -0,9 6,4 778,3 -1,7 1,8 27,7 4,8
22.12.11 1020,5 1016,6 1018,9 0,9 89,0 -0,7 0,6 2,7 781,6 0,2 2,1 16,5 3,3
23.12.11 1021,5 1013,9 1019,5 3,7 95,9 3,1 3,5 1,1 784,1 1,4 5,8 27,3 2,5
24.12.11 1026,9 1009,9 1016,3 2,3 93,0 1,3 0,3 6,9 791,6 0,3 4,2 29,8 7,5
25.12.11 1031,7 1027,0 1029,0 1,2 92,1 0,1 0,4 4,3 791,6 0,3 2,4 23,0 0,0
26.12.11 1034,7 1031,2 1033,1 3,8 96,0 3,2 3,5 2,7 793,3 2,4 4,5 21,6 1,7
27.12.11 1034,4 1032,1 1033,3 4,3 96,0 3,7 4,2 2,1 793,8 3,8 4,7 19,4 0,5
28.12.11 1032,0 1018,5 1025,3 2,5 93,4 1,5 1,5 3,8 793,8 1,6 3,8 31,6 0,0
29.12.11 1019,4 1010,4 1017,2 1,7 78,9 -1,7 -0,5 7,9 795,2 0,5 4,4 38,8 1,4
30.12.11 1012,8 1002,2 1007,0 0,3 87,7 -1,5 -1,2 6,5 799,0 -0,6 1,3 47,1 3,8
31.12.11 1013,3 1010,9 1012,1 0,2 84,3 -2,1 -0,1 1,6 802,6 -1,3 1,1 18,3 3,6